Terminal Aerodrome Forecast
Issued by NWS Missoula, MT

Home | Current Version | Previous Version | Text Only | Print | Product List | Glossary On
Versions: 1 2 3 4 5 6 7 8 9 10 11 12 13 14 15 16 17 18 19 20 21 22
000
FTUS45 KMSO 211720
TAFBTM
TAF
KBTM 211720Z 2118/2218 36008KT P6SM VCSH BKN080
     FM211900 31007KT P6SM VCTS BKN050CB
     FM220000 15006KT P6SM VCSH BKN070
     FM220500 32006KT P6SM BKN100=

USA.gov is the U.S. government's official web portal to all federal, state and local government web resources and services.